Pollock, SD

5:43 AM CDT on May 24, 2015 (GMT -0500)
Heier Farm | | Change Station
CLOSE
Current Station
Personal Weather Station
Location: Hague, ND
Elevation: 1841 ft
Nearby Weather Stations

Elev 1841 ft 46.00 °N, 100.05 °W | Updated 14 minutes ago

Overcast
Overcast
52.2 °F
Feels Like 52.2 °F
N
6.8
Wind Variable Wind from East

Today
High -- | Low -- °F
--% Chance of Precip.
Yesterday
High -- | Low -- °F
Precip. -- in
6:00 AM 9:16 PM
Waxing Crescent, 38% visible
Pressure 30.01 in
Visibility 10.0 miles
Clouds Overcast 3700 ft
Dew Point 50 °F
Humidity 93%
Rainfall 0.00 in
Snow Depth Not available.
UV 0 out of 12
Pollen 8.20 out of 12
Air Quality Not available.
Flu Activity Sporadic
METAR KMBG 240952Z AUTO 07010KT 10SM OVC037 13/11 A3001 RMK AO2 SLP160 T01330111

More Conditions Fewer Conditions

Pressure 30.01 in
Visibility 10.0 miles
Clouds Overcast 3700 ft
Dew Point 50 °F
Humidity 93%
Rainfall 0.00 in
Snow Depth Not available.
UV 0 out of 12
Pollen 8.20 out of 12
Air Quality Not available.
Flu Activity Sporadic
METAR KMBG 240952Z AUTO 07010KT 10SM OVC037 13/11 A3001 RMK AO2 SLP160 T01330111

More Conditions Fewer Conditions

10-Day Weather Forecast

Almanac

Astronomy

May. 24, 2015 Rise Set
Actual Time
Civil Twilight
Nautical Twilight
Astronomical Twilight
Moon
Length of Visible Light
Length of Day
Tomorrow will be .
, % of the Moon is Illuminated

Today's Extremes

State Highs State Lows

Community

WunderPhotos

Upload Photos

1,823,709 photos uploaded!

WunderBlogs® & News

Nearby

Air Quality

  Air Quality AQ Index Pollutant
Not available.

Snow Depth

Station Depth Elevation

Earthquake Activity

City Distance Mag. Time & Date
Minimum magnitude displayed is 2.5.

Coastal Water Temperatures

Place Temperature

Stations

Nearby Weather Stations

Station Location Temp. Windchill Dew Point Humidity Wind Precip. Elev Updated Type